Time;durP1;ratioP1;P1;durP2;ratioP2;P2;SDS_P1;SDS_P2;PMS_P1;PMS_P2;Temp;Humidity;BMP_temperature;BMP_pressure;BME280_temperature;BME280_humidity;BME280_pressure;Samples;Min_cycle;Max_cycle;Signal;HPM_P1;HPM_P2
2023/02/11 00:00:30;;;;;;;;;;;;;;;-11.50;70.73;94961.34;5021130;28;19924;-46
2023/02/11 00:02:55;;;;;;;;;;;;;;;-11.64;70.52;94962.03;5023662;28;19928;-48
2023/02/11 00:05:21;;;;;;;;;;;;;;;-11.82;70.98;94971.81;5024946;28;19924;-47
2023/02/11 00:07:46;;;;;;;;;;;;;;;-12.17;71.57;94974.22;5026901;28;20034;-46
2023/02/11 00:10:11;;;;;;;;;;;;;;;-12.47;72.13;94969.75;5024827;28;19921;-45
2023/02/11 00:12:37;;;;;;;;;;;;;;;-12.28;71.62;94970.69;5024990;28;19968;-45
2023/02/11 00:15:02;;;;;;;;;;;;;;;-12.27;72.01;94980.19;5022903;28;20014;-45
2023/02/11 00:17:28;;;;;;;;;;;;;;;-12.10;71.44;94975.00;5025618;28;19921;-45
2023/02/11 00:19:53;;;;;;;;;;;;;;;-12.12;70.93;94982.59;5023926;28;19928;-46
2023/02/11 00:22:19;;;;;;;;;;;;;;;-12.15;71.06;94987.91;5026572;28;20588;-45
2023/02/11 00:24:44;;;;;;;;;;;;;;;-12.02;70.33;94983.84;5025033;28;19928;-45
2023/02/11 00:27:09;;;;;;;;;;;;;;;-11.92;69.69;94972.50;5023732;28;19913;-45
2023/02/11 00:29:35;;;;;;;;;;;;;;;-12.00;69.82;94982.34;5025322;28;19921;-46
2023/02/11 00:32:04;;;;;;;;;;;;;;;-12.16;70.33;94989.03;5017531;28;20375;-47
2023/02/11 00:34:29;;;;;;;;;;;;;;;-12.30;70.81;94986.25;5024420;28;19928;-46
2023/02/11 00:36:55;;;;;;;;;;;;;;;-12.36;71.57;94985.06;5024584;28;19917;-47
2023/02/11 00:39:20;;;;;;;;;;;;;;;-12.18;71.52;94980.66;5023899;28;20419;-47
2023/02/11 00:41:45;;;;;;;;;;;;;;;-12.07;69.69;94978.84;5021644;28;19924;-46
2023/02/11 00:44:10;;;;;;;;;;;;;;;-12.36;69.03;94977.09;5023318;28;19973;-46
2023/02/11 00:46:37;;;;;;;;;;;;;;;-12.19;69.17;94979.88;5024229;28;19921;-46
2023/02/11 00:49:02;;;;;;;;;;;;;;;-12.27;69.66;94972.19;5017541;28;20323;-47
2023/02/11 00:51:27;;;;;;;;;;;;;;;-12.64;69.92;94977.53;5021677;28;19922;-45
2023/02/11 00:53:53;;;;;;;;;;;;;;;-12.39;70.83;94975.13;5017253;28;19928;-47
2023/02/11 00:56:18;;;;;;;;;;;;;;;-12.56;70.03;94963.94;5019221;28;19921;-48
2023/02/11 00:58:44;;;;;;;;;;;;;;;-12.32;69.24;94959.25;5018661;28;20325;-47
2023/02/11 01:01:09;;;;;;;;;;;;;;;-12.49;69.33;94969.34;5023061;28;20007;-47
2023/02/11 01:03:34;;;;;;;;;;;;;;;-12.71;69.42;94964.94;5023586;28;19921;-46
2023/02/11 01:06:00;;;;;;;;;;;;;;;-12.81;69.82;94976.22;5021601;28;20650;-47
2023/02/11 01:08:25;;;;;;;;;;;;;;;-12.78;69.73;94970.19;5025440;28;19921;-46
2023/02/11 01:10:54;;;;;;;;;;;;;;;-13.10;70.17;94981.63;5026189;28;20448;-46
2023/02/11 01:13:19;;;;;;;;;;;;;;;-13.18;70.41;94988.72;5021868;28;19929;-46
2023/02/11 01:15:44;;;;;;;;;;;;;;;-12.86;69.33;94976.53;5023283;28;20310;-46
2023/02/11 01:18:10;;;;;;;;;;;;;;;-13.05;69.84;94982.06;5025075;28;19920;-47
2023/02/11 01:20:35;;;;;;;;;;;;;;;-13.03;69.82;94974.44;5022759;28;20072;-47
2023/02/11 01:23:00;;;;;;;;;;;;;;;-13.28;70.81;94968.13;5024641;28;19990;-46
2023/02/11 01:25:26;;;;;;;;;;;;;;;-13.32;71.87;94977.94;5023977;28;20344;-47
2023/02/11 01:27:51;;;;;;;;;;;;;;;-13.22;72.91;94969.31;5023470;28;19975;-46
2023/02/11 01:30:16;;;;;;;;;;;;;;;-13.05;72.11;94962.69;5023489;28;19919;-47
2023/02/11 01:32:41;;;;;;;;;;;;;;;-13.02;72.30;94965.38;5020523;28;19925;-47
2023/02/11 01:35:07;;;;;;;;;;;;;;;-12.98;71.46;94965.41;5025461;28;19913;-48
2023/02/11 01:37:32;;;;;;;;;;;;;;;-13.05;69.66;94963.44;5023409;28;19957;-46
2023/02/11 01:39:58;;;;;;;;;;;;;;;-12.93;69.30;94962.44;5025640;28;20472;-48
2023/02/11 01:42:23;;;;;;;;;;;;;;;-12.78;69.53;94953.47;5024483;28;19917;-47
2023/02/11 01:44:50;;;;;;;;;;;;;;;-12.70;69.51;94952.41;5018968;28;19928;-47
2023/02/11 01:47:15;;;;;;;;;;;;;;;-12.62;69.58;94951.34;5022097;28;19932;-47
2023/02/11 01:49:45;;;;;;;;;;;;;;;-12.58;67.36;94950.25;5022612;28;19917;-47
2023/02/11 01:52:14;;;;;;;;;;;;;;;-12.69;67.01;94957.34;5023324;28;19924;-46
2023/02/11 01:57:30;;;;;;;;;;;;;;;-13.23;69.35;94947.28;5022232;28;19979;-47
2023/02/11 02:00:01;;;;;;;;;;;;;;;-13.23;69.33;94943.91;5022981;28;19924;-47
2023/02/11 02:02:35;;;;;;;;;;;;;;;-13.05;69.74;94939.53;5022903;28;19921;-47
2023/02/11 02:05:07;;;;;;;;;;;;;;;-13.21;68.38;94949.59;5025439;28;19952;-46
2023/02/11 02:07:35;;;;;;;;;;;;;;;-12.85;67.23;94940.09;5022610;28;19925;-46
2023/02/11 02:10:03;;;;;;;;;;;;;;;-13.20;67.42;94948.47;5023404;28;19925;-48
2023/02/11 02:12:28;;;;;;;;;;;;;;;-13.54;67.96;94937.06;5021570;28;20031;-46
2023/02/11 02:15:10;;;;;;;;;;;;;;;-13.63;68.58;94933.91;5024512;28;20557;-47
2023/02/11 02:17:37;;;;;;;;;;;;;;;-13.77;68.94;94936.34;5024318;28;19924;-47
2023/02/11 02:20:02;;;;;;;;;;;;;;;-13.87;70.13;94941.50;5022430;28;19960;-47
2023/02/11 02:22:45;;;;;;;;;;;;;;;-13.87;69.69;94942.28;5022344;28;19972;-48
2023/02/11 02:25:17;;;;;;;;;;;;;;;-13.64;68.90;94942.97;5022474;28;20027;-47
2023/02/11 02:27:48;;;;;;;;;;;;;;;-13.65;69.47;94935.38;5017765;28;19980;-47
2023/02/11 02:30:16;;;;;;;;;;;;;;;-13.30;69.77;94933.19;5019480;28;20553;-46
2023/02/11 02:32:50;;;;;;;;;;;;;;;-13.24;69.12;94935.16;5019600;28;19921;-46
2023/02/11 02:35:25;;;;;;;;;;;;;;;-13.27;68.03;94935.88;5020721;28;19913;-47
2023/02/11 02:37:54;;;;;;;;;;;;;;;-13.42;68.38;94944.78;5022461;28;19921;-46
2023/02/11 02:40:24;;;;;;;;;;;;;;;-13.43;69.12;94939.84;5023174;28;20439;-47
2023/02/11 02:42:49;;;;;;;;;;;;;;;-13.55;68.73;94937.38;5021489;28;19957;-46
2023/02/11 02:45:15;;;;;;;;;;;;;;;-13.40;68.87;94939.09;5022909;28;19952;-47
2023/02/11 02:47:40;;;;;;;;;;;;;;;-13.52;69.54;94936.69;5021077;28;20363;-46
2023/02/11 02:50:05;;;;;;;;;;;;;;;-13.40;68.52;94926.59;5018941;28;20540;-46
2023/02/11 02:52:35;;;;;;;;;;;;;;;-13.43;68.30;94937.19;5019572;28;19918;-47
2023/02/11 02:55:07;;;;;;;;;;;;;;;-13.28;68.14;94933.56;5018641;28;19917;-47
2023/02/11 02:57:37;;;;;;;;;;;;;;;-13.21;68.52;94936.31;5023675;28;19924;-49
2023/02/11 03:00:05;;;;;;;;;;;;;;;-13.54;68.44;94936.28;5023261;28;19917;-48
2023/02/11 03:02:32;;;;;;;;;;;;;;;-13.38;67.55;94939.53;5020479;28;19917;-47
2023/02/11 03:05:01;;;;;;;;;;;;;;;-13.50;67.29;94937.09;5021405;28;20641;-48
2023/02/11 03:07:29;;;;;;;;;;;;;;;-13.87;67.48;94946.81;5022684;28;19932;-50
2023/02/11 03:09:58;;;;;;;;;;;;;;;-14.26;67.82;94946.22;5019774;28;19917;-48
2023/02/11 03:12:24;;;;;;;;;;;;;;;-14.49;68.62;94951.59;5022758;28;19921;-49
2023/02/11 03:14:50;;;;;;;;;;;;;;;-14.60;69.29;94942.69;5021599;28;20459;-45
2023/02/11 03:17:16;;;;;;;;;;;;;;;-14.69;70.02;94944.03;5024158;28;21248;-46
2023/02/11 03:19:45;;;;;;;;;;;;;;;-14.61;70.52;94946.44;5027571;28;20385;-47
2023/02/11 03:22:12;;;;;;;;;;;;;;;-14.42;70.48;94945.63;5024442;28;19917;-47
2023/02/11 03:24:38;;;;;;;;;;;;;;;-14.28;69.81;94940.50;5023934;28;20007;-47
2023/02/11 03:27:22;;;;;;;;;;;;;;;-14.08;70.27;94941.97;5025282;28;20605;-46
2023/02/11 03:29:48;;;;;;;;;;;;;;;-14.21;71.86;94949.38;5023488;28;19917;-46
2023/02/11 03:32:18;;;;;;;;;;;;;;;-14.31;71.39;94949.97;5024145;28;20557;-47
2023/02/11 03:34:47;;;;;;;;;;;;;;;-14.30;70.92;94950.75;5024390;28;19928;-48
2023/02/11 03:37:13;;;;;;;;;;;;;;;-14.05;70.04;94952.63;5021259;28;19983;-48
2023/02/11 03:39:40;;;;;;;;;;;;;;;-13.86;69.42;94951.78;5026539;28;19932;-46
2023/02/11 03:42:06;;;;;;;;;;;;;;;-13.80;68.41;94952.22;5025950;28;19924;-49
2023/02/11 03:44:36;;;;;;;;;;;;;;;-13.97;67.62;94959.56;5026289;28;19924;-47
2023/02/11 03:47:02;;;;;;;;;;;;;;;-14.10;67.10;94955.59;5024222;28;19928;-48
2023/02/11 03:49:27;;;;;;;;;;;;;;;-14.14;66.44;94948.72;5021256;28;19917;-47
2023/02/11 03:51:52;;;;;;;;;;;;;;;-14.02;67.61;94956.47;5027188;28;20688;-48
2023/02/11 03:54:19;;;;;;;;;;;;;;;-13.91;67.61;94952.06;5025536;28;19960;-46
2023/02/11 03:56:51;;;;;;;;;;;;;;;-14.16;69.20;94951.69;5027046;28;19917;-48
2023/02/11 03:59:16;;;;;;;;;;;;;;;-14.08;68.51;94952.59;5023131;28;19923;-46
2023/02/11 04:01:41;;;;;;;;;;;;;;;-14.39;68.14;94943.03;5023317;28;19921;-47
2023/02/11 04:04:07;;;;;;;;;;;;;;;-14.28;69.54;94951.13;5025003;28;19971;-48
2023/02/11 04:06:32;;;;;;;;;;;;;;;-14.17;67.82;94952.84;5024264;28;19922;-48
2023/02/11 04:08:57;;;;;;;;;;;;;;;-14.35;68.64;94964.28;5027649;28;19917;-47
2023/02/11 04:11:23;;;;;;;;;;;;;;;-14.28;68.96;94951.91;5023780;28;19918;-46
2023/02/11 04:13:48;;;;;;;;;;;;;;;-14.37;68.37;94959.34;5024042;28;20476;-47
2023/02/11 04:16:13;;;;;;;;;;;;;;;-14.33;68.38;94952.22;5026075;28;19924;-47
2023/02/11 04:18:38;;;;;;;;;;;;;;;-14.66;68.53;94954.72;5025690;28;19929;-46
2023/02/11 04:21:04;;;;;;;;;;;;;;;-14.97;69.54;94957.53;5023677;28;19960;-47
2023/02/11 04:23:29;;;;;;;;;;;;;;;-15.08;69.64;94951.28;5023951;28;19937;-46
2023/02/11 04:25:54;;;;;;;;;;;;;;;-15.17;70.24;94948.84;5026270;28;20727;-47
2023/02/11 04:28:20;;;;;;;;;;;;;;;-15.02;70.36;94945.34;5022839;28;20384;-47
2023/02/11 04:30:45;;;;;;;;;;;;;;;-14.70;69.27;94951.19;5024376;28;19919;-46
2023/02/11 04:33:10;;;;;;;;;;;;;;;-14.58;68.90;94944.97;5024304;28;20404;-47
2023/02/11 04:35:35;;;;;;;;;;;;;;;-14.63;67.60;94948.69;5024206;28;19965;-47
2023/02/11 04:38:01;;;;;;;;;;;;;;;-14.56;68.29;94946.16;5025821;28;20015;-46
2023/02/11 04:40:26;;;;;;;;;;;;;;;-14.59;69.66;94932.84;5026744;28;19921;-47
2023/02/11 04:42:51;;;;;;;;;;;;;;;-14.39;68.78;94931.66;5026046;28;20024;-48
2023/02/11 04:45:17;;;;;;;;;;;;;;;-14.22;69.82;94931.91;5024880;28;19948;-47
2023/02/11 04:47:42;;;;;;;;;;;;;;;-14.20;67.33;94932.31;5019890;28;19979;-47
2023/02/11 04:50:07;;;;;;;;;;;;;;;-14.31;67.03;94933.31;5022537;28;19913;-47
2023/02/11 04:52:32;;;;;;;;;;;;;;;-14.27;66.70;94929.53;5020492;28;19929;-48
2023/02/11 04:54:58;;;;;;;;;;;;;;;-14.62;67.42;94931.66;5024455;28;20400;-47
2023/02/11 04:57:23;;;;;;;;;;;;;;;-14.96;67.98;94941.28;5022999;28;19928;-48
2023/02/11 04:59:48;;;;;;;;;;;;;;;-15.09;69.01;94936.50;5022034;28;19972;-48
2023/02/11 05:02:14;;;;;;;;;;;;;;;-15.19;68.66;94937.84;5023992;28;19925;-47
2023/02/11 05:04:39;;;;;;;;;;;;;;;-15.18;68.82;94936.69;5018942;28;19917;-49
2023/02/11 05:07:04;;;;;;;;;;;;;;;-15.26;68.81;94929.75;5024155;28;20247;-48
2023/02/11 05:09:29;;;;;;;;;;;;;;;-14.89;68.54;94933.47;5020137;28;20022;-49
2023/02/11 05:11:55;;;;;;;;;;;;;;;-14.73;68.38;94935.25;5024877;28;19921;-47
2023/02/11 05:14:20;;;;;;;;;;;;;;;-14.71;68.33;94933.78;5022740;28;19984;-48
2023/02/11 05:16:45;;;;;;;;;;;;;;;-15.06;69.13;94923.31;5023969;28;20282;-49
2023/02/11 05:19:10;;;;;;;;;;;;;;;-15.11;70.03;94930.78;5025233;28;20309;-47
2023/02/11 05:21:36;;;;;;;;;;;;;;;-15.28;69.87;94928.56;5021817;28;19921;-48
2023/02/11 05:24:01;;;;;;;;;;;;;;;-15.10;70.54;94927.78;5021497;28;20421;-48
2023/02/11 05:26:26;;;;;;;;;;;;;;;-15.13;69.87;94928.47;5019423;28;20053;-48
2023/02/11 05:28:52;;;;;;;;;;;;;;;-14.91;69.35;94932.28;5019922;28;19924;-46
2023/02/11 05:31:17;;;;;;;;;;;;;;;-14.61;68.86;94927.88;5016369;28;19921;-48
2023/02/11 05:33:42;;;;;;;;;;;;;;;-14.62;68.04;94925.59;5021261;28;19967;-46
2023/02/11 05:36:09;;;;;;;;;;;;;;;-15.12;69.17;94930.03;5019475;28;19917;-47
2023/02/11 05:38:34;;;;;;;;;;;;;;;-15.28;69.87;94918.75;5024245;28;19921;-48
2023/02/11 05:41:00;;;;;;;;;;;;;;;-15.33;69.83;94919.00;5024441;28;19936;-45
2023/02/11 05:43:25;;;;;;;;;;;;;;;-15.17;70.70;94922.34;5022983;28;19982;-47
2023/02/11 05:45:50;;;;;;;;;;;;;;;-15.06;69.99;94925.19;5024045;28;19925;-48
2023/02/11 05:48:16;;;;;;;;;;;;;;;-14.74;69.38;94926.53;5019893;28;20570;-48
2023/02/11 05:50:41;;;;;;;;;;;;;;;-14.62;68.33;94929.03;5022244;28;19928;-46
2023/02/11 05:53:07;;;;;;;;;;;;;;;-14.51;69.04;94921.25;5024891;28;19925;-46
2023/02/11 05:55:32;;;;;;;;;;;;;;;-14.35;68.06;94927.94;5022425;28;19916;-48
2023/02/11 05:57:57;;;;;;;;;;;;;;;-14.22;67.27;94920.53;5020694;28;19922;-47
2023/02/11 06:00:23;;;;;;;;;;;;;;;-14.22;66.49;94929.25;5022892;28;19917;-47
2023/02/11 06:02:48;;;;;;;;;;;;;;;-14.22;65.74;94931.91;5017191;28;19921;-47
2023/02/11 06:05:13;;;;;;;;;;;;;;;-14.23;65.93;94935.69;5022271;28;20012;-47
2023/02/11 06:07:39;;;;;;;;;;;;;;;-14.48;66.52;94934.53;5023092;28;19944;-47
2023/02/11 06:10:04;;;;;;;;;;;;;;;-14.65;67.52;94940.31;5025658;28;19921;-48
2023/02/11 06:12:30;;;;;;;;;;;;;;;-14.62;68.21;94931.66;5024777;28;19932;-47
2023/02/11 06:14:55;;;;;;;;;;;;;;;-14.31;67.31;94934.06;5023654;28;20426;-47
2023/02/11 06:17:22;;;;;;;;;;;;;;;-14.41;67.36;94936.53;5021485;28;19917;-47
2023/02/11 06:19:47;;;;;;;;;;;;;;;-14.38;66.40;94936.63;5023627;28;19913;-46
2023/02/11 06:22:12;;;;;;;;;;;;;;;-14.23;67.24;94938.34;5022612;28;20328;-46
2023/02/11 06:24:38;;;;;;;;;;;;;;;-14.45;66.96;94938.38;5025020;28;19924;-47
2023/02/11 06:27:03;;;;;;;;;;;;;;;-14.31;67.41;94942.00;5022856;28;20525;-47
2023/02/11 06:29:29;;;;;;;;;;;;;;;-13.97;66.93;94943.63;5022584;28;19925;-47
2023/02/11 06:31:54;;;;;;;;;;;;;;;-14.08;67.74;94934.78;5019453;28;19928;-47
2023/02/11 06:34:19;;;;;;;;;;;;;;;-14.17;68.79;94944.88;5022583;28;19972;-47
2023/02/11 06:36:44;;;;;;;;;;;;;;;-13.64;68.88;94944.88;5018498;28;20379;-46
2023/02/11 06:39:10;;;;;;;;;;;;;;;-13.07;66.40;94933.03;5020444;28;19921;-47
2023/02/11 06:41:36;;;;;;;;;;;;;;;-12.86;66.68;94935.94;5019117;28;20647;-48
2023/02/11 06:44:01;;;;;;;;;;;;;;;-12.53;66.66;94933.97;5022885;28;19945;-47
2023/02/11 06:46:27;;;;;;;;;;;;;;;-12.42;67.21;94928.75;5022701;28;20734;-47
2023/02/11 06:48:52;;;;;;;;;;;;;;;-12.15;67.32;94926.69;5016648;28;19913;-48
2023/02/11 06:51:17;;;;;;;;;;;;;;;-11.88;67.10;94920.81;5019979;28;20321;-48
2023/02/11 06:53:43;;;;;;;;;;;;;;;-11.56;66.94;94926.28;5017776;28;19921;-48
2023/02/11 06:56:10;;;;;;;;;;;;;;;-11.18;66.98;94922.28;5023510;28;19929;-45
2023/02/11 06:58:35;;;;;;;;;;;;;;;-10.75;66.49;94925.88;5024842;28;20008;-48
2023/02/11 07:01:05;;;;;;;;;;;;;;;-9.65;65.26;94922.84;5023599;28;20477;-48
2023/02/11 07:03:31;;;;;;;;;;;;;;;-8.61;61.14;94924.81;5018559;28;19920;-49
2023/02/11 07:05:56;;;;;;;;;;;;;;;-8.49;58.42;94913.66;5026005;28;19948;-48
2023/02/11 07:08:21;;;;;;;;;;;;;;;-8.27;58.80;94915.03;5018791;28;19924;-48
2023/02/11 07:10:47;;;;;;;;;;;;;;;-7.28;57.04;94916.84;5019821;28;19921;-48
2023/02/11 07:13:12;;;;;;;;;;;;;;;-5.71;53.24;94921.28;5026129;28;19968;-46
2023/02/11 07:15:37;;;;;;;;;;;;;;;-6.07;53.81;94922.25;5021977;28;20472;-48
2023/02/11 07:18:03;;;;;;;;;;;;;;;-4.06;50.62;94911.94;5021515;28;19952;-47
2023/02/11 07:20:28;;;;;;;;;;;;;;;-1.61;45.68;94911.09;5017090;28;19925;-47
2023/02/11 07:22:53;;;;;;;;;;;;;;;-0.06;42.19;94905.72;5019266;28;19943;-48
2023/02/11 07:25:19;;;;;;;;;;;;;;;-0.43;40.93;94903.22;5020825;28;19925;-47
2023/02/11 07:27:44;;;;;;;;;;;;;;;1.75;38.13;94901.81;5016385;28;20393;-48
2023/02/11 07:30:11;;;;;;;;;;;;;;;1.81;35.02;94908.16;5022469;28;20412;-49
2023/02/11 07:32:36;;;;;;;;;;;;;;;3.00;36.31;94897.06;5017924;28;19928;-48
2023/02/11 07:35:02;;;;;;;;;;;;;;;3.96;33.49;94894.91;5022343;28;20298;-47
2023/02/11 07:37:28;;;;;;;;;;;;;;;3.84;33.21;94896.69;5016233;28;19917;-48
2023/02/11 07:39:53;;;;;;;;;;;;;;;4.75;32.87;94892.91;5018274;28;20349;-47
2023/02/11 07:42:18;;;;;;;;;;;;;;;6.44;31.10;94885.59;5016838;28;19921;-47
2023/02/11 07:44:45;;;;;;;;;;;;;;;6.45;30.08;94885.16;5019981;28;19921;-48
2023/02/11 07:47:10;;;;;;;;;;;;;;;6.90;28.96;94894.44;5018517;28;19971;-49
2023/02/11 07:49:35;;;;;;;;;;;;;;;6.92;28.39;94889.19;5020153;28;20324;-47
2023/02/11 07:52:01;;;;;;;;;;;;;;;7.67;27.19;94879.56;5018357;28;20007;-48
2023/02/11 07:54:26;;;;;;;;;;;;;;;7.84;27.93;94881.09;5015794;28;19921;-48
2023/02/11 07:56:51;;;;;;;;;;;;;;;9.06;26.21;94881.91;5014216;28;19960;-50
2023/02/11 07:59:16;;;;;;;;;;;;;;;7.70;27.40;94881.31;5017568;28;19956;-48
2023/02/11 08:01:42;;;;;;;;;;;;;;;7.93;28.16;94883.63;5014064;28;19949;-47
2023/02/11 08:04:07;;;;;;;;;;;;;;;7.19;27.45;94882.38;5017899;28;19940;-48
2023/02/11 08:06:33;;;;;;;;;;;;;;;8.91;26.87;94878.69;5017805;28;20461;-46
2023/02/11 08:09:03;;;;;;;;;;;;;;;9.58;25.95;94878.47;5016448;28;19923;-46
2023/02/11 08:11:29;;;;;;;;;;;;;;;9.30;25.13;94877.81;5018579;28;20019;-43
2023/02/11 08:13:54;;;;;;;;;;;;;;;9.27;26.21;94874.06;5021301;28;20071;-48
2023/02/11 08:16:30;;;;;;;;;;;;;;;9.56;26.16;94875.47;5017018;28;20439;-50
2023/02/11 08:18:56;;;;;;;;;;;;;;;9.32;26.37;94870.56;5020665;28;20374;-48
2023/02/11 08:21:22;;;;;;;;;;;;;;;9.98;25.63;94869.50;5019211;28;19914;-48
2023/02/11 08:23:48;;;;;;;;;;;;;;;9.94;25.88;94864.25;5022282;28;20516;-47
2023/02/11 08:26:17;;;;;;;;;;;;;;;11.24;25.20;94866.97;5018839;28;19952;-49
2023/02/11 08:28:43;;;;;;;;;;;;;;;11.47;24.45;94872.28;5023092;28;19939;-47
2023/02/11 08:31:09;;;;;;;;;;;;;;;11.86;23.81;94861.50;5021164;28;19921;-48
2023/02/11 08:33:35;;;;;;;;;;;;;;;10.53;25.63;94862.88;5017535;28;20052;-46
2023/02/11 08:36:02;;;;;;;;;;;;;;;10.73;25.14;94858.94;5018827;28;19920;-47
2023/02/11 08:38:27;;;;;;;;;;;;;;;11.31;23.82;94865.66;5020260;28;20348;-48
2023/02/11 08:40:52;;;;;;;;;;;;;;;11.95;23.40;94841.75;5022687;28;19924;-47
2023/02/11 08:43:18;;;;;;;;;;;;;;;11.20;25.17;94854.72;5017139;28;19917;-46
2023/02/11 08:45:43;;;;;;;;;;;;;;;12.12;24.79;94861.66;5016371;28;20385;-48
2023/02/11 08:48:08;;;;;;;;;;;;;;;12.90;23.90;94855.66;5016003;28;20436;-47
2023/02/11 08:50:37;;;;;;;;;;;;;;;12.37;24.42;94860.25;5022520;28;20040;-48
2023/02/11 08:53:03;;;;;;;;;;;;;;;12.18;24.09;94862.31;5023119;28;20010;-48
2023/02/11 08:55:28;;;;;;;;;;;;;;;11.40;24.92;94859.78;5017112;28;20015;-50
2023/02/11 08:57:53;;;;;;;;;;;;;;;11.20;24.60;94863.00;5018546;28;19924;-47
2023/02/11 09:00:19;;;;;;;;;;;;;;;12.54;23.57;94862.81;5016477;28;20472;-47
2023/02/11 09:02:46;;;;;;;;;;;;;;;11.99;23.89;94861.59;5017923;28;19921;-47
2023/02/11 09:05:11;;;;;;;;;;;;;;;11.57;23.48;94854.78;5018666;28;19967;-48
2023/02/11 09:07:37;;;;;;;;;;;;;;;11.17;24.06;94859.28;5017598;28;19918;-48
2023/02/11 09:10:02;;;;;;;;;;;;;;;11.95;23.29;94842.50;5017596;28;19961;-48
2023/02/11 09:12:27;;;;;;;;;;;;;;;12.83;22.35;94857.00;5018214;28;19928;-48
2023/02/11 09:14:53;;;;;;;;;;;;;;;12.05;24.40;94854.69;5014240;28;20345;-47
2023/02/11 09:17:18;;;;;;;;;;;;;;;13.30;22.48;94854.44;5019936;28;19927;-46
2023/02/11 09:20:17;;;;;;;;;;;;;;;13.01;23.98;94849.16;5018987;28;20515;-45
2023/02/11 09:22:43;;;;;;;;;;;;;;;11.71;23.83;94844.59;5009187;28;19921;-47
2023/02/11 09:25:08;;;;;;;;;;;;;;;11.84;23.70;94839.91;5017877;28;20753;-49
2023/02/11 09:27:33;;;;;;;;;;;;;;;12.27;22.34;94850.09;5018262;28;19921;-46
2023/02/11 09:29:59;;;;;;;;;;;;;;;11.93;23.90;94849.84;5021893;28;19924;-46
2023/02/11 09:32:24;;;;;;;;;;;;;;;13.33;23.25;94847.06;5016090;28;20706;-46
2023/02/11 09:34:49;;;;;;;;;;;;;;;13.52;23.23;94834.59;5018222;28;19917;-50
2023/02/11 09:37:14;;;;;;;;;;;;;;;15.07;22.92;94828.25;5012830;28;19921;-47
2023/02/11 09:39:40;;;;;;;;;;;;;;;14.41;21.60;94818.81;5011372;28;19917;-48
2023/02/11 09:42:11;;;;;;;;;;;;;;;13.65;23.42;94817.94;5013693;28;19940;-47
2023/02/11 09:44:37;;;;;;;;;;;;;;;14.55;22.66;94820.25;5017883;28;19917;-47
2023/02/11 09:47:09;;;;;;;;;;;;;;;14.07;22.24;94806.94;5018982;28;19955;-49
2023/02/11 09:49:34;;;;;;;;;;;;;;;14.36;22.34;94806.53;5017206;28;19921;-47
2023/02/11 09:52:06;;;;;;;;;;;;;;;13.55;22.80;94808.56;5020629;28;20356;-49
2023/02/11 09:54:57;;;;;;;;;;;;;;;13.46;22.79;94803.44;5019300;28;19926;-48
2023/02/11 09:57:25;;;;;;;;;;;;;;;14.14;22.91;94804.22;5013226;28;19917;-46
2023/02/11 09:59:50;;;;;;;;;;;;;;;14.05;22.37;94790.81;5020696;28;19924;-47
2023/02/11 10:02:19;;;;;;;;;;;;;;;13.99;22.77;94781.13;5015785;28;20315;-50
2023/02/11 10:05:07;;;;;;;;;;;;;;;13.77;23.85;94781.63;5015506;28;20458;-48
2023/02/11 10:07:41;;;;;;;;;;;;;;;13.13;23.43;94784.66;4997468;28;19933;-48
2023/02/11 10:10:25;;;;;;;;;;;;;;;13.04;23.97;94782.28;4995816;28;20074;-46
2023/02/11 10:13:05;;;;;;;;;;;;;;;13.50;23.40;94769.81;5003387;28;19926;-47
2023/02/11 10:15:49;;;;;;;;;;;;;;;13.49;23.80;94769.06;4998310;28;20417;-47
2023/02/11 10:18:26;;;;;;;;;;;;;;;13.09;24.03;94761.31;5003183;28;20025;-47
2023/02/11 10:20:52;;;;;;;;;;;;;;;13.47;24.27;94760.53;4999896;28;20471;-47
2023/02/11 10:23:23;;;;;;;;;;;;;;;13.84;23.77;94751.16;4992453;28;19925;-48
2023/02/11 10:25:49;;;;;;;;;;;;;;;13.82;23.24;94753.72;4982476;28;19921;-46
2023/02/11 10:28:18;;;;;;;;;;;;;;;13.44;22.86;94738.66;4997574;28;19925;-46
2023/02/11 10:30:48;;;;;;;;;;;;;;;13.30;23.20;94732.38;5001072;28;20019;-46
2023/02/11 10:33:19;;;;;;;;;;;;;;;11.94;26.22;94729.53;4982399;28;19926;-46
2023/02/11 10:35:45;;;;;;;;;;;;;;;11.70;26.32;94721.34;4993060;28;19918;-45
2023/02/11 10:38:10;;;;;;;;;;;;;;;12.37;24.31;94718.25;4979165;28;20365;-46
2023/02/11 10:40:36;;;;;;;;;;;;;;;11.41;25.56;94712.69;4979923;28;20450;-45
2023/02/11 10:43:03;;;;;;;;;;;;;;;12.94;26.60;94712.69;4994603;28;19972;-46
2023/02/11 10:45:31;;;;;;;;;;;;;;;13.07;25.35;94711.19;4982261;28;20012;-46
2023/02/11 10:47:58;;;;;;;;;;;;;;;13.75;23.52;94695.34;4998343;28;19961;-45
2023/02/11 10:50:27;;;;;;;;;;;;;;;13.85;23.89;94694.34;4993463;28;19921;-47
2023/02/11 10:52:53;;;;;;;;;;;;;;;13.56;23.68;94685.16;4998319;28;20409;-46
2023/02/11 10:55:20;;;;;;;;;;;;;;;13.09;24.73;94680.91;4981601;28;20370;-46
2023/02/11 10:57:48;;;;;;;;;;;;;;;13.61;24.04;94684.31;4995895;28;19924;-45
2023/02/11 11:00:16;;;;;;;;;;;;;;;13.95;24.39;94677.97;4996404;28;19945;-47
2023/02/11 11:02:43;;;;;;;;;;;;;;;14.17;23.45;94678.16;4996720;28;19999;-45
2023/02/11 11:05:16;;;;;;;;;;;;;;;13.35;24.53;94673.28;4980749;28;19922;-46
2023/02/11 11:07:50;;;;;;;;;;;;;;;13.68;24.41;94671.78;4993055;28;19921;-45
2023/02/11 11:10:26;;;;;;;;;;;;;;;13.13;25.29;94681.31;4996496;28;20368;-47
2023/02/11 11:12:51;;;;;;;;;;;;;;;13.03;24.34;94666.38;5001830;28;19926;-47
2023/02/11 11:15:20;;;;;;;;;;;;;;;13.15;26.32;94668.41;4994573;28;20542;-48
2023/02/11 11:17:48;;;;;;;;;;;;;;;13.29;25.41;94666.38;5000899;28;19921;-48
2023/02/11 11:20:19;;;;;;;;;;;;;;;13.63;24.74;94653.22;4994519;28;19917;-47
2023/02/11 11:22:44;;;;;;;;;;;;;;;13.99;24.15;94656.91;4995626;28;20313;-46
2023/02/11 11:25:23;;;;;;;;;;;;;;;13.71;24.62;94654.03;4996682;28;19926;-50
2023/02/11 11:27:52;;;;;;;;;;;;;;;14.75;23.10;94657.50;4996723;28;20678;-46
2023/02/11 11:30:17;;;;;;;;;;;;;;;14.33;23.32;94649.25;5000994;28;19925;-47
2023/02/11 11:32:43;;;;;;;;;;;;;;;14.09;24.97;94652.38;4999851;28;20479;-48
2023/02/11 11:35:25;;;;;;;;;;;;;;;14.01;24.58;94648.78;4997658;28;19964;-47
2023/02/11 11:37:51;;;;;;;;;;;;;;;13.01;25.55;94647.53;4999868;28;20375;-46
2023/02/11 11:40:24;;;;;;;;;;;;;;;12.64;25.94;94639.47;5004704;28;19987;-46
2023/02/11 11:43:02;;;;;;;;;;;;;;;12.24;25.62;94644.22;5003455;28;19931;-47
2023/02/11 11:45:27;;;;;;;;;;;;;;;12.89;25.94;94635.16;5000996;28;20012;-46
2023/02/11 11:47:53;;;;;;;;;;;;;;;13.04;26.55;94638.13;4993459;28;20059;-46
2023/02/11 11:50:29;;;;;;;;;;;;;;;12.43;26.02;94635.84;5006585;28;20768;-46
2023/02/11 11:53:14;;;;;;;;;;;;;;;12.74;25.69;94632.94;5005288;28;20012;-47
2023/02/11 11:55:58;;;;;;;;;;;;;;;12.03;27.25;94626.75;4995553;28;19988;-46
2023/02/11 11:58:23;;;;;;;;;;;;;;;12.59;26.11;94615.38;5001707;28;20320;-46
2023/02/11 12:01:04;;;;;;;;;;;;;;;11.65;26.97;94619.81;4996911;28;19925;-46
2023/02/11 12:03:38;;;;;;;;;;;;;;;11.70;26.39;94610.69;5003388;28;19921;-45
2023/02/11 12:06:10;;;;;;;;;;;;;;;11.36;27.29;94613.22;5010560;28;20393;-47
2023/02/11 12:08:35;;;;;;;;;;;;;;;11.45;27.69;94604.53;5023900;28;19921;-50
2023/02/11 12:11:09;;;;;;;;;;;;;;;11.97;26.97;94595.66;5020928;28;19913;-46
2023/02/11 12:13:53;;;;;;;;;;;;;;;11.60;27.80;94602.03;5022279;28;20012;-47
2023/02/11 12:16:27;;;;;;;;;;;;;;;11.11;28.08;94601.53;5016390;28;19929;-45
2023/02/11 12:18:59;;;;;;;;;;;;;;;10.72;28.44;94606.81;5022953;28;19921;-47
2023/02/11 12:21:33;;;;;;;;;;;;;;;10.45;27.17;94586.59;5023671;28;20539;-46
2023/02/11 12:24:17;;;;;;;;;;;;;;;10.67;29.21;94591.09;5021156;28;20440;-45
2023/02/11 12:26:42;;;;;;;;;;;;;;;9.92;29.34;94577.09;5018812;28;19917;-45
2023/02/11 12:29:13;;;;;;;;;;;;;;;10.55;28.85;94576.66;5022583;28;20007;-48
2023/02/11 12:31:56;;;;;;;;;;;;;;;10.40;30.39;94568.06;5014891;28;19950;-47
2023/02/11 12:34:22;;;;;;;;;;;;;;;10.24;29.26;94576.56;5015778;28;19921;-47
2023/02/11 12:37:09;;;;;;;;;;;;;;;10.34;27.14;94566.66;5017894;28;19991;-47
2023/02/11 12:39:56;;;;;;;;;;;;;;;9.78;30.75;94566.47;5020585;28;19971;-48
2023/02/11 12:45:11;;;;;;;;;;;;;;;9.81;27.11;94552.41;5020685;28;19968;-46
2023/02/11 12:47:55;;;;;;;;;;;;;;;9.23;30.60;94539.41;5018705;28;19952;-46
2023/02/11 12:50:23;;;;;;;;;;;;;;;9.70;31.90;94551.78;5023488;28;20062;-46